Latest Weather Observations for Fortescue Dave Forrest

IDW60801

Issued at 10:33 pm WST Thursday 19 January 2017 (issued every 30 minutes, with the page automatically refreshed every 10 minutes)

About weather observations | Map of weather stations | Latest weather observations for WA | Other Formats
Station Details ID: 505056 Name: FORTESCUE DAVE FORREST Lat: -22.29 Lon: 119.43 Height: 474.6 m
Data from the previous 72 hours. | See also: Recent months for locations in Western Australia
Date/Time
WST
Temp
°C
App
Temp
°C
Dew
Point
°C
Rel
Hum
%
Delta-T
°C
Wind Press
QNH
hPa
Press
MSL
hPa
Rain since
9am
mm
Dir  Spd
km/h
Gust
km/h
Spd
kts
Gust
kts
19/10:30pm 24.8 27.8 22.7 88 1.4 NW 11 15 6 8 1006.9 1002.7 1.6
19/10:00pm 25.0 28.1 22.9 88 1.4 WNW 11 15 6 8 1007.0 1002.8 1.6
19/09:30pm 25.1 29.1 23.7 92 1.0 NW 9 13 5 7 1007.0 1002.8 1.6
19/09:00pm 25.6 30.2 23.8 90 1.3 NNW 6 9 3 5 1007.3 1003.2 1.6
19/08:30pm 26.1 30.6 23.6 86 1.7 NW 6 9 3 5 1007.0 1002.8 1.6
19/08:00pm 25.9 30.8 24.3 91 1.1 NW 6 9 3 5 1006.5 1002.4 1.6
19/07:30pm 25.7 30.6 23.6 88 1.5 W 4 7 2 4 1006.3 1002.2 1.6
19/07:00pm 25.7 30.1 23.4 87 1.6 W 6 7 3 4 1006.0 1001.9 1.6
19/06:30pm 25.5 29.6 23.2 87 1.6 WSW 7 11 4 6 1005.6 1001.5 1.6
19/06:05pm 25.0 28.5 22.9 88 1.4 SSW 9 15 5 8 1005.5 1001.4 1.6
19/06:00pm 24.6 28.2 23.0 91 1.1 S 9 15 5 8 1005.7 1001.6 1.6
19/05:43pm 24.7 26.4 23.1 91 1.1 S 19 32 10 17 1005.6 1001.5 1.6
19/05:30pm 24.4 24.3 22.3 88 1.4 S 26 48 14 26 1005.8 1001.7 1.6
19/05:17pm 27.5 30.0 22.4 73 3.5 E 13 50 7 27 1005.8 1001.7 1.6
19/05:16pm 27.8 31.4 23.0 75 3.3 NE 9 43 5 23 1005.7 1001.6 1.6
19/05:00pm 27.6 32.4 24.4 83 2.3 NNE 7 9 4 5 1004.7 1000.5 1.6
19/04:30pm 27.5 32.1 24.1 82 2.4 WNW 7 11 4 6 1004.7 1000.5 1.6
19/04:00pm 27.8 31.2 24.0 80 2.7 NW 13 19 7 10 1004.8 1000.6 1.6
19/03:47pm 28.3 31.6 24.5 80 2.7 WNW 15 20 8 11 1004.9 1000.7 1.6
19/03:30pm 27.3 28.0 23.7 81 2.5 WSW 26 41 14 22 1004.7 1000.5 1.2
19/03:28pm 27.7 27.8 23.9 80 2.7 WSW 30 48 16 26 1004.7 1000.5 1.0
19/03:27pm 27.9 27.9 23.7 78 2.9 SW 30 48 16 26 1004.7 1000.5 0.8
19/03:20pm 31.1 30.6 20.7 54 7.0 SW 24 48 13 26 1004.0 999.9 0.0
19/03:00pm 34.0 35.8 21.1 47 8.9 SW 13 26 7 14 1004.2 1000.1 0.0
19/02:30pm 34.4 36.3 21.4 46 9.0 WSW 13 20 7 11 1004.3 1000.2 0.0
19/02:00pm 33.0 35.1 20.9 49 8.3 W 11 24 6 13 1004.9 1000.7 0.0
19/01:30pm 32.3 34.4 20.9 51 7.8 W 11 22 6 12 1005.4 1001.3 0.0
19/01:00pm 31.9 34.1 20.5 51 7.7 W 9 15 5 8 1006.0 1001.9 0.0
19/12:30pm 31.1 33.8 20.7 54 7.0 W 7 17 4 9 1007.0 1002.8 0.0
19/12:00pm 31.1 33.9 21.6 57 6.5 SW 9 19 5 10 1007.4 1003.3 0.0
19/11:30am 29.9 33.1 21.6 61 5.7 SW 7 17 4 9 1007.7 1003.6 0.0
19/11:00am 29.3 32.0 21.3 62 5.4 SW 9 17 5 9 1008.0 1003.9 0.0
19/10:30am 29.5 32.8 21.4 61 5.5 S 6 11 3 6 1008.2 1004.1 0.0
19/10:00am 28.6 31.6 20.9 63 5.2 W 6 15 3 8 1008.3 1004.2 0.0
19/09:30am 28.1 31.2 21.4 67 4.5 WNW 7 15 4 8 1008.5 1004.4 0.0
19/09:00am 27.2 29.7 21.7 72 3.7 W 11 15 6 8 1008.5 1004.4 7.6
19/08:30am 26.5 28.9 22.3 78 2.9 W 13 19 7 10 1008.4 1004.3 7.6
19/08:00am 25.7 28.8 22.8 84 2.0 WNW 11 17 6 9 1008.5 1004.4 7.6
19/07:30am 25.2 27.5 22.1 83 2.1 WNW 13 20 7 11 1008.3 1004.2 7.6
19/07:00am 25.2 28.3 22.1 83 2.1 WNW 9 13 5 7 1008.4 1004.3 7.6
19/06:30am 23.9 27.3 21.6 87 1.5 WNW 6 7 3 4 1008.4 1004.3 7.6
19/06:00am 23.6 27.8 21.7 89 1.3 W 2 4 1 2 1008.2 1004.1 7.6
19/05:30am 23.5 27.1 22.1 92 0.9 WNW 6 9 3 5 1007.8 1003.7 7.6
19/05:00am 23.4 27.3 22.6 95 0.5 WNW 6 7 3 4 1007.5 1003.4 7.6
19/04:30am 23.4 27.3 22.6 95 0.5 WNW 6 7 3 4 1007.2 1003.1 7.6
19/04:00am 23.5 27.3 22.7 95 0.5 WNW 7 9 4 5 1007.1 1002.9 7.6
19/03:30am 23.6 26.8 22.4 93 0.8 WNW 9 11 5 6 1007.0 1002.8 7.6
19/03:00am 23.6 27.3 22.6 94 0.7 WNW 7 9 4 5 1006.8 1002.6 7.6
19/02:30am 23.9 28.1 22.5 92 1.0 WNW 4 6 2 3 1006.3 1002.2 7.6
19/02:00am 24.0 27.9 22.6 92 1.0 WNW 6 6 3 3 1006.6 1002.5 7.6
19/01:30am 24.2 28.1 22.6 91 1.1 WSW 6 6 3 3 1006.5 1002.4 7.6
19/01:00am 24.1 28.1 22.7 92 1.0 SW 6 7 3 4 1006.8 1002.6 7.6
19/12:30am 24.0 27.7 22.6 92 1.0 WSW 7 13 4 7 1007.0 1002.8 7.6
19/12:00am 23.9 27.8 22.9 94 0.7 NW 7 9 4 5 1007.4 1003.3 7.6
 
Date/Time
WST
Temp
°C
App
Temp
°C
Dew
Point
°C
Rel
Hum
%
Delta-T
°C
Wind Press
QNH
hPa
Press
MSL
hPa
Rain since
9am
mm
Dir  Spd
km/h
Gust
km/h
Spd
kts
Gust
kts
18/11:30pm 23.9 27.0 22.9 94 0.7 WNW 11 15 6 8 1008.5 1004.4 7.6
18/11:00pm 23.9 26.6 22.9 94 0.7 W 13 19 7 10 1009.4 1005.3 7.6
18/10:30pm 23.9 26.2 22.7 93 0.8 W 15 22 8 12 1009.9 1005.8 7.6
18/10:00pm 24.0 25.4 22.8 93 0.8 W 20 26 11 14 1010.1 1006.0 7.6
18/09:30pm 24.1 26.1 22.9 93 0.8 WNW 17 26 9 14 1010.2 1006.1 7.6
18/09:00pm 24.1 26.2 23.1 94 0.7 NW 17 24 9 13 1009.9 1005.8 7.6
18/08:30pm 24.0 26.0 23.0 94 0.7 NNW 17 24 9 13 1009.5 1005.4 7.6
18/08:21pm 23.9 25.9 22.9 94 0.7 NNW 17 26 9 14 1009.4 1005.3 7.6
18/08:00pm 24.0 26.3 22.8 93 0.8 NW 15 20 8 11 1009.4 1005.3 7.6
18/07:30pm 24.0 26.3 22.8 93 0.8 NNW 15 22 8 12 1009.1 1005.0 7.6
18/07:00pm 24.2 26.9 22.8 92 1.0 NNW 13 19 7 10 1008.7 1004.6 7.6
18/06:30pm 24.3 27.3 22.7 91 1.1 NNW 11 15 6 8 1008.5 1004.4 7.6
18/06:00pm 24.3 27.5 23.1 93 0.8 N 11 15 6 8 1007.9 1003.8 7.4
18/05:30pm 24.2 28.1 23.0 93 0.8 N 7 11 4 6 1007.6 1003.5 7.4
18/05:02pm 24.0 28.4 22.8 93 0.8 WNW 4 6 2 3 1007.8 1003.7 6.8
18/05:00pm 24.0 28.4 22.8 93 0.8 W 4 6 2 3 1007.8 1003.7 6.8
18/04:30pm 24.1 28.8 23.4 96 0.5 WNW 4 9 2 5 1007.7 1003.6 6.0
18/04:28pm 24.1 28.8 23.4 96 0.5 W 4 7 2 4 1007.8 1003.7 5.8
18/04:27pm 24.1 28.5 23.4 96 0.5 W 6 7 3 4 1007.8 1003.7 5.8
18/04:00pm 23.9 28.4 22.9 94 0.7 WSW 4 6 2 3 1008.0 1003.9 3.0
18/03:57pm 23.9 28.2 22.7 93 0.8 SSW 4 6 2 3 1008.0 1003.9 2.4
18/03:30pm 24.2 28.2 22.8 92 1.0 ESE 6 11 3 6 1008.2 1004.1 1.6
18/03:00pm 24.0 26.5 23.1 95 0.6 S 15 22 8 12 1007.7 1003.6 1.2
18/02:35pm 25.1 27.4 24.1 94 0.7 ESE 19 24 10 13 1007.3 1003.2 1.0
18/02:30pm 25.0 27.0 24.0 94 0.7 ESE 20 28 11 15 1006.9 1002.7 1.0
18/02:23pm 25.4 26.8 24.2 93 0.8 ESE 24 30 13 16 1006.9 1002.7 0.6
18/02:00pm 29.2 33.4 23.4 71 4.1 ESE 7 13 4 7 1006.6 1002.5 0.0
18/01:30pm 28.1 31.0 23.2 74 3.4 WSW 13 22 7 12 1006.5 1002.4 0.0
18/01:00pm 30.5 29.0 19.5 51 7.3 WNW 26 33 14 18 1006.9 1002.7 0.0
18/12:30pm 28.9 27.8 21.1 62 5.3 W 28 43 15 23 1007.0 1002.8 0.0
18/12:19pm 30.5 30.7 22.7 63 5.4 WNW 26 41 14 22 1007.2 1003.1 0.0
18/12:00pm 32.8 35.6 21.6 51 7.7 NNE 9 19 5 10 1007.6 1003.5 0.0
18/11:30am 31.8 35.1 21.9 55 6.8 NNW 7 13 4 7 1008.1 1004.0 0.0
18/11:00am 31.1 34.1 21.9 58 6.3 NW 9 17 5 9 1008.4 1004.3 0.0
18/10:30am 31.3 35.6 22.0 57 6.4 W 2 7 1 4 1008.8 1004.7 0.0
18/10:00am 30.6 34.3 22.2 61 5.8 SSW 6 13 3 7 1009.2 1005.1 0.0
18/09:30am 29.4 33.0 22.1 65 5.0 NW 6 11 3 6 1009.4 1005.3 0.0
18/09:00am 28.7 32.8 22.2 68 4.5 NNE 4 9 2 5 1009.6 1005.5 0.0
18/08:30am 27.7 31.5 22.4 73 3.6 NW 6 9 3 5 1009.8 1005.7 0.0
18/08:00am 27.0 30.8 22.4 76 3.2 W 6 7 3 4 1009.7 1005.6 0.0
18/07:30am 26.6 30.2 22.4 78 2.9 W 7 11 4 6 1009.7 1005.6 0.0
18/07:00am 26.2 29.9 22.5 80 2.5 NW 7 11 4 6 1009.6 1005.5 0.0
18/06:30am 25.9 29.6 22.6 82 2.3 NW 7 11 4 6 1009.3 1005.2 0.0
18/06:00am 25.7 28.9 22.4 82 2.3 NNW 9 11 5 6 1009.2 1005.1 0.0
18/05:30am 25.8 28.2 22.3 81 2.4 NNW 13 19 7 10 1008.8 1004.7 0.0
18/05:00am 25.8 28.6 22.3 81 2.4 NNW 11 13 6 7 1008.6 1004.5 0.0
18/04:30am 25.9 28.8 22.4 81 2.4 N 11 15 6 8 1008.4 1004.3 0.0
18/04:00am 26.1 29.0 22.4 80 2.5 N 11 15 6 8 1008.4 1004.3 0.0
18/03:30am 26.4 29.3 22.5 79 2.7 NNW 11 15 6 8 1008.4 1004.3 0.0
18/03:00am 26.8 29.9 22.8 79 2.8 WNW 11 15 6 8 1008.4 1004.3 0.0
18/02:30am 26.9 31.5 23.2 80 2.6 NE 4 6 2 3 1008.3 1004.2 0.0
18/02:00am 26.8 31.0 23.1 80 2.6 SSW 6 9 3 5 1007.9 1003.8 0.0
18/01:30am 26.5 30.6 23.0 81 2.4 S 6 9 3 5 1008.0 1003.9 0.0
18/01:00am 26.7 30.6 23.0 80 2.6 SSE 7 13 4 7 1008.1 1004.0 0.0
18/12:30am 27.0 30.5 22.8 78 2.9 S 9 15 5 8 1008.4 1004.3 0.0
18/12:00am 28.4 30.8 22.2 69 4.3 NW 13 17 7 9 1008.8 1004.7 0.0
 
Date/Time
WST
Temp
°C
App
Temp
°C
Dew
Point
°C
Rel
Hum
%
Delta-T
°C
Wind Press
QNH
hPa
Press
MSL
hPa
Rain since
9am
mm
Dir  Spd
km/h
Gust
km/h
Spd
kts
Gust
kts
17/11:30pm 28.5 32.0 21.8 67 4.6 W 6 9 3 5 1008.9 1004.8 0.0
17/11:00pm 29.0 31.8 21.5 64 5.1 NNW 9 13 5 7 1009.3 1005.2 0.0
17/10:30pm 28.2 32.3 22.9 73 3.7 ESE 6 9 3 5 1009.5 1005.4 0.0
17/10:00pm 29.7 32.8 22.2 64 5.2 ESE 9 13 5 7 1009.7 1005.6 0.0
17/09:30pm 30.7 34.3 21.2 57 6.5 WNW 4 9 2 5 1009.2 1005.1 0.0
17/09:00pm 30.7 33.5 20.9 56 6.7 NNW 7 13 4 7 1008.4 1004.3 0.0
17/08:30pm 31.1 33.1 20.7 54 7.0 NW 11 15 6 8 1008.0 1003.9 0.0
17/08:00pm 31.4 33.0 20.7 53 7.3 NW 13 20 7 11 1007.3 1003.2 0.0
17/07:30pm 31.8 32.5 20.4 51 7.7 NW 17 22 9 12 1007.0 1002.8 0.0
17/07:00pm 32.3 33.1 19.9 48 8.4 NNW 15 22 8 12 1006.5 1002.4 0.0
17/06:30pm 32.8 32.9 20.0 47 8.6 NNW 19 24 10 13 1006.4 1002.3 0.0
17/06:00pm 33.4 33.4 20.2 46 9.0 NNW 20 28 11 15 1005.9 1001.8 0.0
17/05:30pm 33.9 34.0 20.3 45 9.2 NNW 20 28 11 15 1005.4 1001.3 0.0
17/05:00pm 34.1 34.1 20.1 43 9.5 NNW 20 30 11 16 1005.0 1000.8 0.0
17/04:30pm 34.6 35.0 19.8 41 10.0 NW 17 26 9 14 1004.8 1000.6 0.0
17/04:00pm 34.9 36.0 19.7 41 10.3 NW 13 22 7 12 1004.8 1000.6 0.0
17/03:30pm 35.5 36.3 19.8 39 10.6 WNW 15 35 8 19 1005.1 1000.9 0.0
17/03:00pm 35.4 36.5 19.7 39 10.6 NNW 13 28 7 15 1005.4 1001.3 0.0
17/02:30pm 35.2 36.2 20.3 41 10.1 NNW 15 26 8 14 1005.8 1001.7 0.0
17/02:00pm 35.2 36.8 19.9 40 10.4 WNW 11 24 6 13 1006.2 1002.1 0.0
17/01:30pm 34.2 35.2 19.4 41 9.9 W 13 24 7 13 1006.6 1002.5 0.0
17/01:00pm 34.7 36.9 19.5 40 10.3 W 7 19 4 10 1007.1 1002.9 0.0
17/12:30pm 34.3 36.6 19.9 42 9.7 WSW 7 19 4 10 1007.5 1003.4 0.0
17/12:00pm 33.1 34.7 19.2 43 9.3 SW 9 17 5 9 1007.9 1003.8 0.0
17/11:30am 32.5 34.3 20.4 49 8.2 W 11 19 6 10 1008.2 1004.1 0.0
17/11:00am 32.5 35.2 20.7 49 8.0 W 7 15 4 8 1008.5 1004.4 0.0
17/10:30am 31.5 34.4 21.7 56 6.7 W 9 17 5 9 1008.7 1004.6 0.0
17/10:00am 30.1 32.6 21.7 60 5.8 W 11 19 6 10 1008.8 1004.7 0.0
17/09:30am 30.0 32.2 21.9 62 5.6 WNW 13 19 7 10 1008.8 1004.7 0.0
17/09:00am 30.0 32.5 21.1 59 6.1 WNW 9 19 5 10 1008.6 1004.5 0.0
17/08:30am 29.0 32.0 22.0 66 4.8 W 9 17 5 9 1008.7 1004.6 0.0
17/08:00am 27.8 30.6 22.3 72 3.8 NW 11 17 6 9 1008.7 1004.6 0.0
17/07:30am 27.0 29.7 22.8 78 2.9 NW 13 17 7 9 1008.7 1004.6 0.0
17/07:00am 25.8 28.2 22.9 84 2.0 NW 15 19 8 10 1008.5 1004.4 0.0
17/06:30am 25.0 28.1 22.9 88 1.4 NW 11 17 6 9 1008.6 1004.5 0.0
17/06:00am 24.6 28.1 22.8 90 1.2 NW 9 13 5 7 1008.5 1004.4 0.0
17/05:30am 24.5 27.8 22.6 89 1.3 NNW 9 11 5 6 1008.3 1004.2 0.0
17/05:00am 24.6 28.3 22.5 88 1.4 NW 7 9 4 5 1008.0 1003.9 0.0
17/04:30am 24.7 28.3 22.4 87 1.6 NW 7 11 4 6 1007.8 1003.7 0.0
17/04:00am 25.0 28.2 22.3 85 1.8 NW 9 13 5 7 1007.6 1003.5 0.0
17/03:30am 25.4 28.2 22.3 83 2.1 NW 11 15 6 8 1007.5 1003.4 0.0
17/03:00am 25.8 28.1 22.1 80 2.5 NW 13 19 7 10 1007.5 1003.4 0.0
17/02:30am 26.0 27.7 21.7 77 2.9 NW 15 19 8 10 1007.6 1003.5 0.0
17/02:00am 26.4 28.4 21.6 75 3.3 NW 13 19 7 10 1007.8 1003.7 0.0
17/01:30am 26.5 28.5 21.5 74 3.4 WNW 13 20 7 11 1007.7 1003.6 0.0
17/01:00am 26.6 28.0 21.8 75 3.3 NW 17 26 9 14 1007.5 1003.4 0.0
17/12:30am 26.9 27.5 22.1 75 3.3 NW 22 30 12 16 1007.2 1003.1 0.0
17/12:00am 27.1 27.3 22.7 77 3.0 NW 26 32 14 17 1007.5 1003.4 0.0
 
Date/Time
WST
Temp
°C
App
Temp
°C
Dew
Point
°C
Rel
Hum
%
Delta-T
°C
Wind Press
QNH
hPa
Press
MSL
hPa
Rain since
9am
mm
Dir  Spd
km/h
Gust
km/h
Spd
kts
Gust
kts
16/11:30pm 27.3 27.5 22.7 76 3.2 NW 26 37 14 20 1007.8 1003.7 0.0
16/11:00pm 27.6 27.4 22.8 75 3.3 NW 28 39 15 21 1008.1 1004.0 0.0

Other Formats:

Comma delimited format used in spreadsheet applications
http://www.bom.gov.au/fwo/IDW60801/IDW60801.99736.axf

JavaScript Object Notation format (JSON) in row-major order
http://www.bom.gov.au/fwo/IDW60801/IDW60801.99736.json